sensor_id;sensor_type;location;lat;lon;timestamp;pressure;altitude;pressure_sealevel;temperature;humidity
43683;BME280;29285;52.128;21.060;2024-02-15T00:03:13;100913.61;;;6.28;100.00
43683;BME280;29285;52.128;21.060;2024-02-15T00:08:14;100910.89;;;6.33;100.00
43683;BME280;29285;52.128;21.060;2024-02-15T00:13:16;100907.84;;;6.36;100.00
43683;BME280;29285;52.128;21.060;2024-02-15T00:18:17;100907.36;;;6.41;100.00
43683;BME280;29285;52.128;21.060;2024-02-15T00:23:18;100910.13;;;6.42;100.00
43683;BME280;29285;52.128;21.060;2024-02-15T00:28:19;100908.94;;;6.44;100.00
43683;BME280;29285;52.128;21.060;2024-02-15T00:33:21;100909.46;;;6.44;100.00
43683;BME280;29285;52.128;21.060;2024-02-15T00:38:22;100907.23;;;6.45;100.00
43683;BME280;29285;52.128;21.060;2024-02-15T00:43:26;100909.30;;;6.45;100.00
43683;BME280;29285;52.128;21.060;2024-02-15T00:48:27;100909.77;;;6.42;100.00
43683;BME280;29285;52.128;21.060;2024-02-15T00:53:30;100919.77;;;6.42;100.00
43683;BME280;29285;52.128;21.060;2024-02-15T00:58:31;100918.33;;;6.34;100.00
43683;BME280;29285;52.128;21.060;2024-02-15T01:03:32;100912.91;;;6.28;100.00
43683;BME280;29285;52.128;21.060;2024-02-15T01:08:34;100909.79;;;6.26;100.00
43683;BME280;29285;52.128;21.060;2024-02-15T01:13:35;100906.71;;;6.29;100.00
43683;BME280;29285;52.128;21.060;2024-02-15T01:18:36;100902.73;;;6.26;100.00
43683;BME280;29285;52.128;21.060;2024-02-15T01:23:39;100904.40;;;6.21;100.00
43683;BME280;29285;52.128;21.060;2024-02-15T01:28:40;100901.25;;;6.17;100.00
43683;BME280;29285;52.128;21.060;2024-02-15T01:33:44;100897.14;;;6.18;100.00
43683;BME280;29285;52.128;21.060;2024-02-15T01:38:48;100896.27;;;6.18;100.00
43683;BME280;29285;52.128;21.060;2024-02-15T01:43:49;100886.13;;;6.21;100.00
43683;BME280;29285;52.128;21.060;2024-02-15T01:48:51;100880.77;;;6.19;100.00
43683;BME280;29285;52.128;21.060;2024-02-15T01:53:53;100881.48;;;6.21;100.00
43683;BME280;29285;52.128;21.060;2024-02-15T01:58:56;100881.43;;;6.16;100.00
43683;BME280;29285;52.128;21.060;2024-02-15T02:03:58;100881.59;;;6.15;100.00
43683;BME280;29285;52.128;21.060;2024-02-15T02:08:59;100882.17;;;6.06;100.00
43683;BME280;29285;52.128;21.060;2024-02-15T02:14:02;100873.38;;;6.05;100.00
43683;BME280;29285;52.128;21.060;2024-02-15T02:19:05;100873.88;;;6.04;100.00
43683;BME280;29285;52.128;21.060;2024-02-15T02:24:14;100872.16;;;6.04;100.00
43683;BME280;29285;52.128;21.060;2024-02-15T02:29:18;100866.19;;;5.96;100.00
43683;BME280;29285;52.128;21.060;2024-02-15T02:34:19;100857.52;;;6.04;100.00
43683;BME280;29285;52.128;21.060;2024-02-15T02:39:20;100861.98;;;6.04;100.00
43683;BME280;29285;52.128;21.060;2024-02-15T02:44:23;100874.14;;;5.99;100.00
43683;BME280;29285;52.128;21.060;2024-02-15T02:49:25;100880.22;;;5.89;100.00
43683;BME280;29285;52.128;21.060;2024-02-15T02:54:26;100873.29;;;5.84;100.00
43683;BME280;29285;52.128;21.060;2024-02-15T02:59:27;100873.61;;;5.84;100.00
43683;BME280;29285;52.128;21.060;2024-02-15T03:04:29;100867.94;;;5.84;100.00
43683;BME280;29285;52.128;21.060;2024-02-15T03:09:30;100861.33;;;5.93;100.00
43683;BME280;29285;52.128;21.060;2024-02-15T03:14:32;100864.13;;;5.97;100.00
43683;BME280;29285;52.128;21.060;2024-02-15T03:19:36;100870.77;;;5.91;100.00
43683;BME280;29285;52.128;21.060;2024-02-15T03:24:37;100866.48;;;5.92;100.00
43683;BME280;29285;52.128;21.060;2024-02-15T03:29:38;100876.21;;;5.99;100.00
43683;BME280;29285;52.128;21.060;2024-02-15T03:34:39;100875.80;;;6.06;100.00
43683;BME280;29285;52.128;21.060;2024-02-15T03:39:40;100882.54;;;6.08;100.00
43683;BME280;29285;52.128;21.060;2024-02-15T03:44:41;100879.34;;;6.15;100.00
43683;BME280;29285;52.128;21.060;2024-02-15T03:49:42;100878.54;;;6.20;100.00
43683;BME280;29285;52.128;21.060;2024-02-15T03:54:43;100882.21;;;6.25;100.00
43683;BME280;29285;52.128;21.060;2024-02-15T03:59:45;100878.26;;;6.27;100.00
43683;BME280;29285;52.128;21.060;2024-02-15T04:04:51;100875.36;;;6.30;100.00
43683;BME280;29285;52.128;21.060;2024-02-15T04:09:55;100872.61;;;6.30;100.00
43683;BME280;29285;52.128;21.060;2024-02-15T04:14:56;100868.10;;;6.28;100.00
43683;BME280;29285;52.128;21.060;2024-02-15T04:20:01;100864.49;;;6.29;100.00
43683;BME280;29285;52.128;21.060;2024-02-15T04:25:05;100867.79;;;6.30;100.00
43683;BME280;29285;52.128;21.060;2024-02-15T04:30:07;100863.15;;;6.32;100.00
43683;BME280;29285;52.128;21.060;2024-02-15T04:35:09;100867.63;;;6.32;100.00
43683;BME280;29285;52.128;21.060;2024-02-15T04:40:11;100871.54;;;6.28;100.00
43683;BME280;29285;52.128;21.060;2024-02-15T04:45:14;100876.05;;;6.30;100.00
43683;BME280;29285;52.128;21.060;2024-02-15T04:50:17;100881.94;;;6.31;100.00
43683;BME280;29285;52.128;21.060;2024-02-15T04:55:19;100880.33;;;6.26;100.00
43683;BME280;29285;52.128;21.060;2024-02-15T05:00:22;100879.96;;;6.25;100.00
43683;BME280;29285;52.128;21.060;2024-02-15T05:05:23;100881.21;;;6.29;100.00
43683;BME280;29285;52.128;21.060;2024-02-15T05:10:25;100880.70;;;6.28;100.00
43683;BME280;29285;52.128;21.060;2024-02-15T05:15:26;100880.02;;;6.29;100.00
43683;BME280;29285;52.128;21.060;2024-02-15T05:20:28;100878.26;;;6.26;100.00
43683;BME280;29285;52.128;21.060;2024-02-15T05:25:29;100876.33;;;6.22;100.00
43683;BME280;29285;52.128;21.060;2024-02-15T05:30:33;100873.71;;;6.18;100.00
43683;BME280;29285;52.128;21.060;2024-02-15T05:35:34;100871.14;;;6.20;100.00
43683;BME280;29285;52.128;21.060;2024-02-15T05:40:40;100874.80;;;6.24;100.00
43683;BME280;29285;52.128;21.060;2024-02-15T05:45:41;100883.80;;;6.27;100.00
43683;BME280;29285;52.128;21.060;2024-02-15T05:50:42;100897.27;;;6.17;100.00
43683;BME280;29285;52.128;21.060;2024-02-15T05:55:43;100901.42;;;6.03;100.00
43683;BME280;29285;52.128;21.060;2024-02-15T06:00:45;100903.77;;;5.84;100.00
43683;BME280;29285;52.128;21.060;2024-02-15T06:05:47;100905.41;;;5.66;100.00
43683;BME280;29285;52.128;21.060;2024-02-15T06:10:49;100906.50;;;5.57;100.00
43683;BME280;29285;52.128;21.060;2024-02-15T06:15:51;100909.52;;;5.63;100.00
43683;BME280;29285;52.128;21.060;2024-02-15T06:20:55;100917.06;;;5.75;100.00
43683;BME280;29285;52.128;21.060;2024-02-15T06:26:03;100916.86;;;5.85;100.00
43683;BME280;29285;52.128;21.060;2024-02-15T06:31:05;100916.84;;;5.84;100.00
43683;BME280;29285;52.128;21.060;2024-02-15T06:36:25;100925.61;;;5.70;100.00
43683;BME280;29285;52.128;21.060;2024-02-15T06:41:44;100929.43;;;5.47;100.00
43683;BME280;29285;52.128;21.060;2024-02-15T06:46:45;100929.75;;;5.34;100.00
43683;BME280;29285;52.128;21.060;2024-02-15T06:51:48;100932.36;;;5.25;100.00
43683;BME280;29285;52.128;21.060;2024-02-15T06:56:49;100929.22;;;5.32;100.00
43683;BME280;29285;52.128;21.060;2024-02-15T07:01:52;100930.67;;;5.50;100.00
43683;BME280;29285;52.128;21.060;2024-02-15T07:06:54;100933.64;;;5.65;100.00
43683;BME280;29285;52.128;21.060;2024-02-15T07:11:56;100938.44;;;5.76;100.00
43683;BME280;29285;52.128;21.060;2024-02-15T07:16:58;100938.77;;;5.89;100.00
43683;BME280;29285;52.128;21.060;2024-02-15T07:21:59;100942.17;;;5.98;100.00
43683;BME280;29285;52.128;21.060;2024-02-15T07:27:00;100942.09;;;6.05;100.00
43683;BME280;29285;52.128;21.060;2024-02-15T07:32:01;100945.08;;;6.07;100.00
43683;BME280;29285;52.128;21.060;2024-02-15T07:37:06;100942.67;;;6.09;100.00
43683;BME280;29285;52.128;21.060;2024-02-15T07:42:07;100943.56;;;6.12;100.00
43683;BME280;29285;52.128;21.060;2024-02-15T07:47:13;100943.98;;;6.17;100.00
43683;BME280;29285;52.128;21.060;2024-02-15T07:52:14;100948.31;;;6.19;100.00
43683;BME280;29285;52.128;21.060;2024-02-15T07:57:15;100951.60;;;6.20;100.00
43683;BME280;29285;52.128;21.060;2024-02-15T08:02:16;100951.41;;;6.06;100.00
43683;BME280;29285;52.128;21.060;2024-02-15T08:07:23;100947.68;;;5.98;100.00
43683;BME280;29285;52.128;21.060;2024-02-15T08:12:24;100944.58;;;5.98;100.00
43683;BME280;29285;52.128;21.060;2024-02-15T08:17:25;100942.22;;;6.02;100.00
43683;BME280;29285;52.128;21.060;2024-02-15T08:22:27;100943.02;;;6.10;100.00
43683;BME280;29285;52.128;21.060;2024-02-15T08:27:28;100940.67;;;6.15;100.00
43683;BME280;29285;52.128;21.060;2024-02-15T08:32:39;100943.36;;;6.24;100.00
43683;BME280;29285;52.128;21.060;2024-02-15T08:37:42;100945.36;;;6.33;100.00
43683;BME280;29285;52.128;21.060;2024-02-15T08:42:48;100947.70;;;6.41;100.00
43683;BME280;29285;52.128;21.060;2024-02-15T08:47:49;100948.64;;;6.49;100.00
43683;BME280;29285;52.128;21.060;2024-02-15T08:52:53;100950.42;;;6.55;100.00
43683;BME280;29285;52.128;21.060;2024-02-15T08:57:57;100954.10;;;6.59;100.00
43683;BME280;29285;52.128;21.060;2024-02-15T09:02:58;100957.60;;;6.64;100.00
43683;BME280;29285;52.128;21.060;2024-02-15T09:07:59;100959.20;;;6.70;100.00
43683;BME280;29285;52.128;21.060;2024-02-15T09:13:00;100960.84;;;6.78;100.00
43683;BME280;29285;52.128;21.060;2024-02-15T09:18:01;100958.64;;;6.84;100.00
43683;BME280;29285;52.128;21.060;2024-02-15T09:23:03;100957.83;;;6.88;100.00
43683;BME280;29285;52.128;21.060;2024-02-15T09:28:10;100962.23;;;6.81;100.00
43683;BME280;29285;52.128;21.060;2024-02-15T09:33:11;100968.40;;;6.76;100.00
43683;BME280;29285;52.128;21.060;2024-02-15T09:38:12;100970.30;;;6.75;100.00
43683;BME280;29285;52.128;21.060;2024-02-15T09:43:17;100975.30;;;6.77;100.00
43683;BME280;29285;52.128;21.060;2024-02-15T09:48:18;100975.35;;;6.82;100.00
43683;BME280;29285;52.128;21.060;2024-02-15T09:53:22;100975.41;;;6.88;100.00
43683;BME280;29285;52.128;21.060;2024-02-15T09:58:30;100973.94;;;6.96;100.00
43683;BME280;29285;52.128;21.060;2024-02-15T10:03:34;100967.80;;;7.04;100.00
43683;BME280;29285;52.128;21.060;2024-02-15T10:08:38;100969.23;;;7.13;100.00
43683;BME280;29285;52.128;21.060;2024-02-15T10:13:39;100964.48;;;7.22;100.00
43683;BME280;29285;52.128;21.060;2024-02-15T10:18:40;100961.45;;;7.31;100.00
43683;BME280;29285;52.128;21.060;2024-02-15T10:23:41;100959.27;;;7.38;100.00
43683;BME280;29285;52.128;21.060;2024-02-15T10:28:42;100958.42;;;7.40;100.00
43683;BME280;29285;52.128;21.060;2024-02-15T10:33:43;100952.73;;;7.41;100.00
43683;BME280;29285;52.128;21.060;2024-02-15T10:38:45;100946.51;;;7.42;100.00
43683;BME280;29285;52.128;21.060;2024-02-15T10:43:46;100941.14;;;7.39;100.00
43683;BME280;29285;52.128;21.060;2024-02-15T10:48:48;100940.27;;;7.37;100.00
43683;BME280;29285;52.128;21.060;2024-02-15T10:53:57;100940.47;;;7.42;100.00
43683;BME280;29285;52.128;21.060;2024-02-15T11:04:12;100931.90;;;7.52;100.00
43683;BME280;29285;52.128;21.060;2024-02-15T11:09:15;100929.55;;;7.66;100.00
43683;BME280;29285;52.128;21.060;2024-02-15T11:29:58;100922.95;;;7.93;100.00
43683;BME280;29285;52.128;21.060;2024-02-15T11:35:08;100918.67;;;8.02;100.00
43683;BME280;29285;52.128;21.060;2024-02-15T11:40:12;100907.48;;;8.15;100.00
43683;BME280;29285;52.128;21.060;2024-02-15T11:45:15;100908.05;;;8.34;100.00
43683;BME280;29285;52.128;21.060;2024-02-15T11:50:20;100905.49;;;8.46;100.00
43683;BME280;29285;52.128;21.060;2024-02-15T11:55:22;100895.49;;;8.58;100.00
43683;BME280;29285;52.128;21.060;2024-02-15T12:00:23;100897.59;;;8.71;100.00
43683;BME280;29285;52.128;21.060;2024-02-15T12:05:43;100897.94;;;8.76;100.00
43683;BME280;29285;52.128;21.060;2024-02-15T12:11:03;100898.45;;;8.79;100.00
43683;BME280;29285;52.128;21.060;2024-02-15T12:16:23;100898.46;;;8.81;100.00
43683;BME280;29285;52.128;21.060;2024-02-15T12:21:43;100891.02;;;8.87;100.00
43683;BME280;29285;52.128;21.060;2024-02-15T12:26:43;100887.39;;;8.94;100.00
43683;BME280;29285;52.128;21.060;2024-02-15T12:31:47;100882.36;;;9.00;100.00
43683;BME280;29285;52.128;21.060;2024-02-15T12:36:48;100887.73;;;8.98;100.00
43683;BME280;29285;52.128;21.060;2024-02-15T12:41:50;100889.29;;;9.00;100.00
43683;BME280;29285;52.128;21.060;2024-02-15T12:46:55;100889.11;;;9.04;100.00
43683;BME280;29285;52.128;21.060;2024-02-15T12:57:41;100896.21;;;8.84;100.00
43683;BME280;29285;52.128;21.060;2024-02-15T13:02:52;100896.73;;;8.81;100.00
43683;BME280;29285;52.128;21.060;2024-02-15T13:07:54;100899.31;;;8.75;100.00
43683;BME280;29285;52.128;21.060;2024-02-15T13:12:59;100894.83;;;8.80;100.00
43683;BME280;29285;52.128;21.060;2024-02-15T13:18:01;100889.28;;;8.92;100.00
43683;BME280;29285;52.128;21.060;2024-02-15T13:23:05;100883.91;;;9.07;100.00
43683;BME280;29285;52.128;21.060;2024-02-15T13:28:11;100881.65;;;9.25;100.00
43683;BME280;29285;52.128;21.060;2024-02-15T13:33:14;100874.35;;;9.33;100.00
43683;BME280;29285;52.128;21.060;2024-02-15T13:38:15;100868.45;;;9.40;100.00
43683;BME280;29285;52.128;21.060;2024-02-15T13:43:23;100866.70;;;9.46;100.00
43683;BME280;29285;52.128;21.060;2024-02-15T13:48:28;100869.78;;;9.55;100.00
43683;BME280;29285;52.128;21.060;2024-02-15T13:53:30;100866.99;;;9.60;100.00
43683;BME280;29285;52.128;21.060;2024-02-15T13:58:31;100868.17;;;9.70;100.00
43683;BME280;29285;52.128;21.060;2024-02-15T14:03:32;100864.30;;;9.84;100.00
43683;BME280;29285;52.128;21.060;2024-02-15T14:08:34;100852.39;;;11.48;100.00
43683;BME280;29285;52.128;21.060;2024-02-15T14:13:35;100855.02;;;11.94;100.00
43683;BME280;29285;52.128;21.060;2024-02-15T14:18:36;100855.75;;;11.48;100.00
43683;BME280;29285;52.128;21.060;2024-02-15T14:23:38;100860.38;;;11.05;100.00
43683;BME280;29285;52.128;21.060;2024-02-15T14:28:39;100870.05;;;10.68;100.00
43683;BME280;29285;52.128;21.060;2024-02-15T14:33:42;100872.30;;;10.42;100.00
43683;BME280;29285;52.128;21.060;2024-02-15T14:38:43;100877.29;;;10.22;100.00
43683;BME280;29285;52.128;21.060;2024-02-15T14:43:45;100882.77;;;10.04;100.00
43683;BME280;29285;52.128;21.060;2024-02-15T14:48:46;100879.69;;;9.93;100.00
43683;BME280;29285;52.128;21.060;2024-02-15T14:53:48;100877.50;;;9.78;100.00
43683;BME280;29285;52.128;21.060;2024-02-15T14:58:50;100887.41;;;9.68;100.00
43683;BME280;29285;52.128;21.060;2024-02-15T15:03:55;100893.52;;;9.57;100.00
43683;BME280;29285;52.128;21.060;2024-02-15T15:08:56;100894.05;;;9.49;100.00
43683;BME280;29285;52.128;21.060;2024-02-15T15:14:15;100895.29;;;9.41;100.00
43683;BME280;29285;52.128;21.060;2024-02-15T15:19:18;100894.25;;;9.33;100.00
43683;BME280;29285;52.128;21.060;2024-02-15T15:24:19;100891.68;;;9.24;100.00
43683;BME280;29285;52.128;21.060;2024-02-15T15:29:22;100886.52;;;9.15;100.00
43683;BME280;29285;52.128;21.060;2024-02-15T15:34:23;100888.59;;;9.09;100.00
43683;BME280;29285;52.128;21.060;2024-02-15T15:39:24;100885.65;;;9.03;100.00
43683;BME280;29285;52.128;21.060;2024-02-15T15:44:27;100890.84;;;8.95;100.00
43683;BME280;29285;52.128;21.060;2024-02-15T15:49:28;100902.09;;;8.86;100.00
43683;BME280;29285;52.128;21.060;2024-02-15T15:54:30;100899.50;;;8.80;100.00
43683;BME280;29285;52.128;21.060;2024-02-15T15:59:32;100898.80;;;8.78;100.00
43683;BME280;29285;52.128;21.060;2024-02-15T16:04:33;100900.89;;;8.75;100.00
43683;BME280;29285;52.128;21.060;2024-02-15T16:09:34;100910.22;;;8.72;100.00
43683;BME280;29285;52.128;21.060;2024-02-15T16:14:35;100912.48;;;8.68;100.00
43683;BME280;29285;52.128;21.060;2024-02-15T16:19:40;100912.13;;;8.63;100.00
43683;BME280;29285;52.128;21.060;2024-02-15T16:24:44;100913.14;;;8.56;100.00
43683;BME280;29285;52.128;21.060;2024-02-15T16:29:44;100915.36;;;8.51;100.00
43683;BME280;29285;52.128;21.060;2024-02-15T16:34:46;100915.01;;;8.50;100.00
43683;BME280;29285;52.128;21.060;2024-02-15T16:39:46;100921.27;;;8.52;100.00
43683;BME280;29285;52.128;21.060;2024-02-15T16:44:47;100920.54;;;8.51;100.00
43683;BME280;29285;52.128;21.060;2024-02-15T16:49:49;100921.06;;;8.51;100.00
43683;BME280;29285;52.128;21.060;2024-02-15T16:54:50;100927.62;;;8.47;100.00
43683;BME280;29285;52.128;21.060;2024-02-15T16:59:51;100932.80;;;8.47;100.00
43683;BME280;29285;52.128;21.060;2024-02-15T17:04:53;100930.05;;;8.49;100.00
43683;BME280;29285;52.128;21.060;2024-02-15T17:09:54;100939.55;;;8.47;100.00
43683;BME280;29285;52.128;21.060;2024-02-15T17:14:55;100947.86;;;8.47;100.00
43683;BME280;29285;52.128;21.060;2024-02-15T17:19:57;100954.77;;;8.50;100.00
43683;BME280;29285;52.128;21.060;2024-02-15T17:24:58;100961.35;;;8.51;100.00
43683;BME280;29285;52.128;21.060;2024-02-15T17:29:59;100957.02;;;8.48;100.00
43683;BME280;29285;52.128;21.060;2024-02-15T17:35:01;100955.98;;;8.46;100.00
43683;BME280;29285;52.128;21.060;2024-02-15T17:40:03;100957.70;;;8.45;100.00
43683;BME280;29285;52.128;21.060;2024-02-15T17:45:04;100953.90;;;8.46;100.00
43683;BME280;29285;52.128;21.060;2024-02-15T17:50:10;100955.80;;;8.47;100.00
43683;BME280;29285;52.128;21.060;2024-02-15T17:55:11;100951.48;;;8.49;100.00
43683;BME280;29285;52.128;21.060;2024-02-15T18:00:14;100954.80;;;8.52;100.00
43683;BME280;29285;52.128;21.060;2024-02-15T18:05:17;100958.80;;;8.52;100.00
43683;BME280;29285;52.128;21.060;2024-02-15T18:10:18;100965.00;;;8.52;100.00
43683;BME280;29285;52.128;21.060;2024-02-15T18:15:22;100962.77;;;8.54;100.00
43683;BME280;29285;52.128;21.060;2024-02-15T18:20:29;100967.09;;;8.56;100.00
43683;BME280;29285;52.128;21.060;2024-02-15T18:25:31;100964.16;;;8.56;100.00
43683;BME280;29285;52.128;21.060;2024-02-15T18:30:32;100964.00;;;8.58;100.00
43683;BME280;29285;52.128;21.060;2024-02-15T18:35:34;100964.86;;;8.54;100.00
43683;BME280;29285;52.128;21.060;2024-02-15T18:40:40;100961.17;;;8.46;100.00
43683;BME280;29285;52.128;21.060;2024-02-15T18:45:42;100961.33;;;8.41;100.00
43683;BME280;29285;52.128;21.060;2024-02-15T18:50:44;100961.65;;;8.31;100.00
43683;BME280;29285;52.128;21.060;2024-02-15T18:55:45;100961.45;;;8.25;100.00
43683;BME280;29285;52.128;21.060;2024-02-15T19:00:46;100955.74;;;8.23;100.00
43683;BME280;29285;52.128;21.060;2024-02-15T19:05:48;100957.98;;;8.22;100.00
43683;BME280;29285;52.128;21.060;2024-02-15T19:10:49;100959.36;;;8.21;100.00
43683;BME280;29285;52.128;21.060;2024-02-15T19:15:50;100966.42;;;8.17;100.00
43683;BME280;29285;52.128;21.060;2024-02-15T19:20:55;100973.30;;;8.08;100.00
43683;BME280;29285;52.128;21.060;2024-02-15T19:25:56;100967.08;;;8.07;100.00
43683;BME280;29285;52.128;21.060;2024-02-15T19:30:58;100973.13;;;8.06;100.00
43683;BME280;29285;52.128;21.060;2024-02-15T19:35:59;100963.94;;;8.01;100.00
43683;BME280;29285;52.128;21.060;2024-02-15T19:41:00;100959.98;;;8.03;100.00
43683;BME280;29285;52.128;21.060;2024-02-15T19:46:01;100967.92;;;8.03;100.00
43683;BME280;29285;52.128;21.060;2024-02-15T19:51:04;100965.66;;;7.99;100.00
43683;BME280;29285;52.128;21.060;2024-02-15T19:56:06;100963.25;;;7.99;100.00
43683;BME280;29285;52.128;21.060;2024-02-15T20:01:08;100965.66;;;8.01;100.00
43683;BME280;29285;52.128;21.060;2024-02-15T20:06:14;100966.69;;;8.00;100.00
43683;BME280;29285;52.128;21.060;2024-02-15T20:11:16;100971.01;;;7.98;100.00
43683;BME280;29285;52.128;21.060;2024-02-15T20:16:17;100967.90;;;7.98;100.00
43683;BME280;29285;52.128;21.060;2024-02-15T20:21:22;100959.94;;;7.98;100.00
43683;BME280;29285;52.128;21.060;2024-02-15T20:26:24;100959.59;;;7.95;100.00
43683;BME280;29285;52.128;21.060;2024-02-15T20:31:27;100956.10;;;7.89;100.00
43683;BME280;29285;52.128;21.060;2024-02-15T20:36:31;100951.98;;;7.92;100.00
43683;BME280;29285;52.128;21.060;2024-02-15T20:41:34;100949.73;;;7.93;100.00
43683;BME280;29285;52.128;21.060;2024-02-15T20:46:35;100946.27;;;7.93;100.00
43683;BME280;29285;52.128;21.060;2024-02-15T20:51:36;100946.11;;;7.94;100.00
43683;BME280;29285;52.128;21.060;2024-02-15T20:56:38;100940.27;;;7.99;100.00
43683;BME280;29285;52.128;21.060;2024-02-15T21:01:41;100943.56;;;8.02;100.00
43683;BME280;29285;52.128;21.060;2024-02-15T21:06:42;100944.59;;;8.04;100.00
43683;BME280;29285;52.128;21.060;2024-02-15T21:11:44;100941.86;;;8.08;100.00
43683;BME280;29285;52.128;21.060;2024-02-15T21:16:46;100940.83;;;8.11;100.00
43683;BME280;29285;52.128;21.060;2024-02-15T21:21:47;100941.17;;;8.13;100.00
43683;BME280;29285;52.128;21.060;2024-02-15T21:26:49;100942.54;;;8.10;100.00
43683;BME280;29285;52.128;21.060;2024-02-15T21:31:50;100942.53;;;8.06;100.00
43683;BME280;29285;52.128;21.060;2024-02-15T21:36:51;100943.73;;;8.04;100.00
43683;BME280;29285;52.128;21.060;2024-02-15T21:41:52;100945.64;;;8.03;100.00
43683;BME280;29285;52.128;21.060;2024-02-15T21:46:54;100942.55;;;8.10;100.00
43683;BME280;29285;52.128;21.060;2024-02-15T21:51:55;100941.86;;;8.11;100.00
43683;BME280;29285;52.128;21.060;2024-02-15T21:56:56;100945.98;;;8.07;100.00
43683;BME280;29285;52.128;21.060;2024-02-15T22:01:57;100941.67;;;8.06;100.00
43683;BME280;29285;52.128;21.060;2024-02-15T22:06:58;100940.64;;;8.09;100.00
43683;BME280;29285;52.128;21.060;2024-02-15T22:11:59;100944.27;;;8.03;100.00
43683;BME280;29285;52.128;21.060;2024-02-15T22:17:00;100941.65;;;8.02;100.00
43683;BME280;29285;52.128;21.060;2024-02-15T22:22:02;100945.10;;;7.99;100.00
43683;BME280;29285;52.128;21.060;2024-02-15T22:27:03;100946.66;;;7.98;100.00
43683;BME280;29285;52.128;21.060;2024-02-15T22:32:06;100951.81;;;7.95;100.00
43683;BME280;29285;52.128;21.060;2024-02-15T22:37:07;100965.09;;;7.88;100.00
43683;BME280;29285;52.128;21.060;2024-02-15T22:42:08;100962.14;;;7.87;100.00
43683;BME280;29285;52.128;21.060;2024-02-15T22:47:11;100963.55;;;7.91;100.00
43683;BME280;29285;52.128;21.060;2024-02-15T22:52:12;100963.71;;;7.87;100.00
43683;BME280;29285;52.128;21.060;2024-02-15T22:57:16;100965.23;;;7.80;100.00
43683;BME280;29285;52.128;21.060;2024-02-15T23:02:17;100970.95;;;7.87;100.00
43683;BME280;29285;52.128;21.060;2024-02-15T23:07:18;100969.58;;;7.86;100.00
43683;BME280;29285;52.128;21.060;2024-02-15T23:12:20;100967.82;;;7.79;100.00
43683;BME280;29285;52.128;21.060;2024-02-15T23:17:21;100968.65;;;7.76;100.00
43683;BME280;29285;52.128;21.060;2024-02-15T23:22:25;100973.13;;;7.73;100.00
43683;BME280;29285;52.128;21.060;2024-02-15T23:27:27;100972.43;;;7.74;100.00
43683;BME280;29285;52.128;21.060;2024-02-15T23:32:28;100969.69;;;7.77;100.00
43683;BME280;29285;52.128;21.060;2024-02-15T23:37:31;100973.86;;;7.81;100.00
43683;BME280;29285;52.128;21.060;2024-02-15T23:42:51;100974.68;;;7.74;100.00
43683;BME280;29285;52.128;21.060;2024-02-15T23:47:53;100978.43;;;7.65;100.00
43683;BME280;29285;52.128;21.060;2024-02-15T23:52:54;100979.96;;;7.62;100.00
43683;BME280;29285;52.128;21.060;2024-02-15T23:57:55;100978.39;;;7.59;100.00
